createdAt,value
2018-08-07T00:00:17.653Z,0.00
2018-08-07T00:01:17.688Z,0.00
2018-08-07T00:02:17.701Z,0.00
2018-08-07T00:03:17.700Z,0.00
2018-08-07T00:04:17.737Z,0.00
2018-08-07T00:05:17.734Z,0.00
2018-08-07T00:06:17.721Z,0.00
2018-08-07T00:07:17.736Z,0.00
2018-08-07T00:08:17.747Z,0.00
2018-08-07T00:09:17.796Z,0.00
2018-08-07T00:10:17.784Z,0.00
2018-08-07T00:11:17.826Z,0.00
2018-08-07T00:12:17.794Z,0.00
2018-08-07T00:13:17.849Z,0.00
2018-08-07T00:14:17.824Z,0.00
2018-08-07T00:15:17.893Z,0.00
2018-08-07T00:16:17.848Z,0.00
2018-08-07T00:17:17.887Z,0.00
2018-08-07T00:18:17.877Z,0.00
2018-08-07T00:19:17.891Z,0.00
2018-08-07T00:20:17.951Z,0.00
2018-08-07T00:21:17.944Z,0.00
2018-08-07T00:22:17.914Z,0.00
2018-08-07T00:23:17.962Z,0.00
2018-08-07T00:24:17.956Z,0.00
2018-08-07T00:25:18.024Z,0.00
2018-08-07T00:26:17.978Z,0.00
2018-08-07T00:27:18.019Z,0.00
2018-08-07T00:28:18.006Z,0.00
2018-08-07T00:29:18.013Z,0.00
2018-08-07T00:30:18.058Z,0.00
2018-08-07T00:31:18.047Z,0.00
2018-08-07T00:32:18.105Z,0.00
2018-08-07T00:33:18.058Z,0.00
2018-08-07T00:34:18.086Z,0.00
2018-08-07T00:35:18.147Z,0.00
2018-08-07T00:36:18.113Z,0.00
2018-08-07T00:37:18.138Z,0.00
2018-08-07T00:38:18.136Z,0.00
2018-08-07T00:39:18.151Z,0.00
2018-08-07T00:40:18.212Z,0.00
2018-08-07T00:41:18.195Z,0.00
2018-08-07T00:42:18.221Z,0.00
2018-08-07T00:43:18.257Z,0.00
2018-08-07T00:44:18.208Z,0.00
2018-08-07T00:45:18.226Z,0.00
2018-08-07T00:46:18.241Z,0.00
2018-08-07T00:47:18.293Z,0.00
2018-08-07T00:48:18.290Z,0.00
2018-08-07T00:49:18.323Z,0.00
2018-08-07T00:50:18.283Z,0.00
2018-08-07T00:51:18.304Z,0.00
2018-08-07T00:52:18.325Z,0.00
2018-08-07T00:53:18.326Z,0.00
2018-08-07T00:54:18.383Z,0.00
2018-08-07T00:55:18.364Z,0.00
2018-08-07T00:56:18.362Z,0.00
2018-08-07T00:57:18.413Z,0.00
2018-08-07T00:58:18.458Z,0.00
2018-08-07T00:59:18.468Z,0.00
2018-08-07T01:00:18.431Z,0.00
2018-08-07T01:01:18.429Z,0.00
2018-08-07T01:02:18.443Z,0.00
2018-08-07T01:03:18.497Z,0.00
2018-08-07T01:04:18.503Z,0.00
2018-08-07T01:05:18.556Z,0.00
2018-08-07T01:06:18.490Z,0.00
2018-08-07T01:07:18.519Z,0.00
2018-08-07T01:08:18.535Z,0.00
2018-08-07T01:09:18.552Z,0.00
2018-08-07T01:10:18.585Z,0.00
2018-08-07T01:11:18.578Z,0.00
2018-08-07T01:12:18.596Z,0.00
2018-08-07T01:13:18.597Z,0.00
2018-08-07T01:14:18.605Z,0.00
2018-08-07T01:15:18.617Z,0.00
2018-08-07T01:16:18.636Z,0.00
2018-08-07T01:17:18.689Z,0.00
2018-08-07T01:18:18.645Z,0.00
2018-08-07T01:19:18.684Z,0.00
2018-08-07T01:20:18.702Z,0.00
2018-08-07T01:21:18.702Z,0.00
2018-08-07T01:22:18.720Z,0.00
2018-08-07T01:23:18.771Z,0.00
2018-08-07T01:24:18.734Z,0.00
2018-08-07T01:25:18.747Z,0.00
2018-08-07T01:26:18.748Z,0.00
2018-08-07T01:27:18.787Z,0.00
2018-08-07T01:28:18.788Z,0.00
2018-08-07T01:29:18.794Z,0.00
2018-08-07T01:30:18.827Z,0.00
2018-08-07T01:31:18.843Z,0.00
2018-08-07T01:32:18.888Z,0.00
2018-08-07T01:33:18.857Z,0.00
2018-08-07T01:34:18.869Z,0.00
2018-08-07T01:35:18.911Z,0.00
2018-08-07T01:36:18.910Z,0.00
2018-08-07T01:37:18.887Z,0.00
2018-08-07T01:38:18.933Z,0.00
2018-08-07T01:39:18.950Z,0.00
2018-08-07T01:40:18.938Z,0.00
2018-08-07T01:41:18.932Z,0.00
2018-08-07T01:42:18.981Z,0.00
2018-08-07T01:43:18.980Z,0.00
2018-08-07T01:44:19.007Z,0.00
2018-08-07T01:45:19.066Z,0.00
2018-08-07T01:46:18.994Z,0.00
2018-08-07T01:47:19.019Z,0.00
2018-08-07T01:48:19.034Z,0.00
2018-08-07T01:49:19.053Z,0.00
2018-08-07T01:50:19.071Z,0.00
2018-08-07T01:51:19.071Z,0.00
2018-08-07T01:52:19.090Z,0.00
2018-08-07T01:53:19.139Z,0.00
2018-08-07T01:54:19.106Z,0.00
2018-08-07T01:55:19.166Z,0.00
2018-08-07T01:56:19.145Z,0.00
2018-08-07T01:57:19.174Z,0.00
2018-08-07T01:58:19.155Z,0.00
2018-08-07T01:59:19.169Z,0.00
2018-08-07T02:00:19.224Z,0.00
2018-08-07T02:01:19.230Z,0.00
2018-08-07T02:02:19.237Z,0.00
2018-08-07T02:03:19.215Z,0.00
2018-08-07T02:04:19.229Z,0.00
2018-08-07T02:05:19.282Z,0.00
2018-08-07T02:06:19.267Z,0.00
2018-08-07T02:07:19.266Z,0.00
2018-08-07T02:08:19.332Z,0.00
2018-08-07T02:09:19.309Z,0.00
2018-08-07T02:10:19.338Z,0.00
2018-08-07T02:11:19.323Z,0.00
2018-08-07T02:12:19.339Z,0.00
2018-08-07T02:13:19.365Z,0.00
2018-08-07T02:14:19.387Z,0.00
2018-08-07T02:15:19.389Z,0.00
2018-08-07T02:16:19.380Z,0.00
2018-08-07T02:17:19.402Z,0.00
2018-08-07T02:18:19.397Z,0.00
2018-08-07T02:19:19.417Z,0.00
2018-08-07T02:20:19.466Z,0.00
2018-08-07T02:21:19.451Z,0.00
2018-08-07T02:22:19.433Z,0.00
2018-08-07T02:23:19.477Z,0.00
2018-08-07T02:24:19.478Z,0.00
2018-08-07T02:25:19.521Z,0.00
2018-08-07T02:26:19.532Z,0.00
2018-08-07T02:27:19.528Z,0.00
2018-08-07T02:28:19.579Z,0.00
2018-08-07T02:29:19.539Z,0.00
2018-08-07T02:30:19.593Z,0.00
2018-08-07T02:31:19.572Z,0.00
2018-08-07T02:32:19.613Z,0.00
2018-08-07T02:33:19.621Z,0.00
2018-08-07T02:34:19.613Z,0.00
2018-08-07T02:35:19.609Z,0.00
2018-08-07T02:36:19.630Z,0.00
2018-08-07T02:37:19.622Z,0.00
2018-08-07T02:38:19.696Z,0.00
2018-08-07T02:39:19.655Z,0.00
2018-08-07T02:40:19.684Z,0.00
2018-08-07T02:41:19.724Z,0.00
2018-08-07T02:42:19.719Z,0.00
2018-08-07T02:43:19.750Z,0.00
2018-08-07T02:44:19.722Z,0.00
2018-08-07T02:45:19.727Z,0.00
2018-08-07T02:46:19.735Z,0.00
2018-08-07T02:47:19.759Z,0.00
2018-08-07T02:48:19.827Z,0.00
2018-08-07T02:49:19.811Z,0.00
2018-08-07T02:50:19.797Z,0.00
2018-08-07T02:51:19.846Z,0.00
2018-08-07T02:52:19.844Z,0.00
2018-08-07T02:53:19.829Z,0.00
2018-08-07T02:54:19.910Z,0.00
2018-08-07T02:55:19.918Z,0.00
2018-08-07T02:56:19.908Z,0.00
2018-08-07T02:57:19.881Z,4.00
2018-08-07T02:58:19.933Z,4.00
2018-08-07T02:59:19.909Z,4.00
2018-08-07T03:00:19.972Z,0.00
2018-08-07T03:01:19.991Z,0.00
2018-08-07T03:02:19.967Z,4.00
2018-08-07T03:03:20.025Z,4.00
2018-08-07T03:04:19.974Z,4.00
2018-08-07T03:05:19.972Z,4.00
2018-08-07T03:06:20.032Z,4.00
2018-08-07T03:07:19.998Z,8.00
2018-08-07T03:08:20.059Z,8.00
2018-08-07T03:09:20.070Z,8.00
2018-08-07T03:10:20.053Z,12.00
2018-08-07T03:11:20.083Z,12.00
2018-08-07T03:12:20.095Z,12.00
2018-08-07T03:13:20.092Z,16.00
2018-08-07T03:14:20.097Z,16.00
2018-08-07T03:15:20.141Z,20.00
2018-08-07T03:16:20.129Z,20.00
2018-08-07T03:17:20.142Z,24.00
2018-08-07T03:18:20.180Z,24.00
2018-08-07T03:19:20.307Z,32.00
2018-08-07T03:20:20.194Z,36.00
2018-08-07T03:21:20.216Z,40.00
2018-08-07T03:22:20.193Z,44.00
2018-08-07T03:23:20.213Z,48.00
2018-08-07T03:24:20.219Z,56.00
2018-08-07T03:25:20.266Z,64.00
2018-08-07T03:26:20.283Z,68.00
2018-08-07T03:27:20.238Z,76.00
2018-08-07T03:28:20.315Z,84.00
2018-08-07T03:29:20.305Z,92.00
2018-08-07T03:30:20.296Z,104.00
2018-08-07T03:31:20.342Z,116.00
2018-08-07T03:32:20.299Z,124.00
2018-08-07T03:33:20.342Z,136.00
2018-08-07T03:34:20.349Z,148.00
2018-08-07T03:35:20.406Z,164.00
2018-08-07T03:36:20.405Z,180.00
2018-08-07T03:37:20.421Z,192.00
2018-08-07T03:38:20.388Z,212.00
2018-08-07T03:39:20.391Z,224.00
2018-08-07T03:40:20.441Z,244.00
2018-08-07T03:41:20.416Z,260.00
2018-08-07T03:42:20.453Z,280.00
2018-08-07T03:43:20.463Z,296.00
2018-08-07T03:44:20.500Z,316.00
2018-08-07T03:45:20.465Z,336.00
2018-08-07T03:46:20.506Z,352.00
2018-08-07T03:47:20.536Z,376.00
2018-08-07T03:48:20.554Z,396.00
2018-08-07T03:49:20.592Z,420.00
2018-08-07T03:50:20.529Z,444.00
2018-08-07T03:51:20.558Z,468.00
2018-08-07T03:52:20.567Z,484.00
2018-08-07T03:53:20.581Z,508.00
2018-08-07T03:54:20.563Z,528.00
2018-08-07T03:55:20.607Z,552.00
2018-08-07T03:56:20.603Z,576.00
2018-08-07T03:57:20.655Z,596.00
2018-08-07T03:58:20.635Z,608.00
2018-08-07T03:59:20.630Z,628.00
2018-08-07T04:00:20.699Z,664.00
2018-08-07T04:01:20.665Z,720.00
2018-08-07T04:02:20.697Z,820.00
2018-08-07T04:03:20.696Z,988.00
2018-08-07T04:04:20.690Z,1156.00
2018-08-07T04:05:20.766Z,1256.00
2018-08-07T04:06:20.748Z,1324.00
2018-08-07T04:07:20.763Z,1372.00
2018-08-07T04:08:20.763Z,1420.00
2018-08-07T04:09:20.767Z,1452.00
2018-08-07T04:10:20.836Z,1508.00
2018-08-07T04:11:20.800Z,1576.00
2018-08-07T04:12:20.817Z,1624.00
2018-08-07T04:13:20.839Z,1664.00
2018-08-07T04:14:20.816Z,1612.00
2018-08-07T04:15:20.886Z,1552.00
2018-08-07T04:16:20.874Z,1660.00
2018-08-07T04:17:20.918Z,1740.00
2018-08-07T04:18:20.876Z,1764.00
2018-08-07T04:19:20.882Z,1904.00
2018-08-07T04:20:20.886Z,2060.00
2018-08-07T04:21:20.920Z,2128.00
2018-08-07T04:22:20.974Z,2188.00
2018-08-07T04:23:20.929Z,2220.00
2018-08-07T04:24:20.987Z,2280.00
2018-08-07T04:25:21.011Z,2348.00
2018-08-07T04:26:21.010Z,2408.00
2018-08-07T04:27:21.017Z,2472.00
2018-08-07T04:28:21.066Z,2532.00
2018-08-07T04:29:21.004Z,2608.00
2018-08-07T04:30:21.043Z,2684.00
2018-08-07T04:31:21.067Z,2740.00
2018-08-07T04:32:21.039Z,2840.00
2018-08-07T04:33:21.116Z,2900.00
2018-08-07T04:34:21.076Z,2992.00
2018-08-07T04:35:21.094Z,3048.00
2018-08-07T04:36:21.106Z,3148.00
2018-08-07T04:37:21.112Z,3244.00
2018-08-07T04:38:21.159Z,3348.00
2018-08-07T04:39:21.143Z,3460.00
2018-08-07T04:40:21.153Z,3524.00
2018-08-07T04:41:21.161Z,3624.00
2018-08-07T04:42:21.219Z,3728.00
2018-08-07T04:43:21.222Z,3804.00
2018-08-07T04:44:21.191Z,3912.00
2018-08-07T04:45:21.235Z,4016.00
2018-08-07T04:46:21.243Z,4108.00
2018-08-07T04:47:21.244Z,4208.00
2018-08-07T04:48:21.262Z,4288.00
2018-08-07T04:49:21.323Z,4392.00
2018-08-07T04:50:21.266Z,4476.00
2018-08-07T04:51:21.276Z,4568.00
2018-08-07T04:52:21.289Z,4692.00
2018-08-07T04:53:21.352Z,4804.00
2018-08-07T04:54:21.357Z,4900.00
2018-08-07T04:55:21.330Z,5016.00
2018-08-07T04:56:21.370Z,5100.00
2018-08-07T04:57:21.368Z,5228.00
2018-08-07T04:58:21.390Z,5348.00
2018-08-07T04:59:21.437Z,5468.00
2018-08-07T05:00:21.425Z,5564.00
2018-08-07T05:01:21.597Z,5672.00
2018-08-07T05:02:21.520Z,5748.00
2018-08-07T05:03:21.464Z,3268.00
2018-08-07T05:04:21.551Z,5960.00
2018-08-07T05:05:21.479Z,6060.00
2018-08-07T05:06:21.518Z,3872.00
2018-08-07T05:07:21.551Z,5596.00
2018-08-07T05:08:21.519Z,6424.00
2018-08-07T05:09:21.537Z,6544.00
2018-08-07T05:10:21.560Z,6712.00
2018-08-07T05:11:21.557Z,6880.00
2018-08-07T05:12:21.608Z,7040.00
2018-08-07T05:13:21.648Z,7248.00
2018-08-07T05:14:21.724Z,7400.00
2018-08-07T05:15:21.626Z,7556.00
2018-08-07T05:16:21.616Z,7708.00
2018-08-07T05:17:21.652Z,7828.00
2018-08-07T05:18:21.675Z,7964.00
2018-08-07T05:19:21.732Z,8120.00
2018-08-07T05:20:21.685Z,8164.00
2018-08-07T05:21:21.685Z,8220.00
2018-08-07T05:22:21.714Z,8240.00
2018-08-07T05:23:21.765Z,8268.00
2018-08-07T05:24:21.755Z,8348.00
2018-08-07T05:25:21.764Z,8428.00
2018-08-07T05:26:21.773Z,8484.00
2018-08-07T05:27:21.787Z,8436.00
2018-08-07T05:28:21.852Z,8572.00
2018-08-07T05:29:21.843Z,8700.00
2018-08-07T05:30:21.882Z,8740.00
2018-08-07T05:31:21.850Z,8868.00
2018-08-07T05:32:21.868Z,9024.00
2018-08-07T05:33:21.913Z,9156.00
2018-08-07T05:34:21.876Z,9224.00
2018-08-07T05:35:21.887Z,9296.00
2018-08-07T05:36:21.908Z,9344.00
2018-08-07T05:37:21.928Z,9408.00
2018-08-07T05:38:22.056Z,9448.00
2018-08-07T05:39:21.976Z,9480.00
2018-08-07T05:40:22.005Z,9492.00
2018-08-07T05:41:21.963Z,9508.00
2018-08-07T05:42:22.104Z,9540.00
2018-08-07T05:43:22.030Z,9560.00
2018-08-07T05:44:22.035Z,9604.00
2018-08-07T05:45:22.042Z,9632.00
2018-08-07T05:46:22.076Z,9724.00
2018-08-07T05:47:22.082Z,9696.00
2018-08-07T05:48:22.135Z,9664.00
2018-08-07T05:49:22.160Z,9660.00
2018-08-07T05:50:22.332Z,9660.00
2018-08-07T05:51:22.149Z,9636.00
2018-08-07T05:52:22.161Z,9624.00
2018-08-07T05:53:22.185Z,9620.00
2018-08-07T05:54:22.212Z,9612.00
2018-08-07T05:55:22.257Z,9584.00
2018-08-07T05:56:22.233Z,9580.00
2018-08-07T05:57:22.225Z,9676.00
2018-08-07T05:58:22.258Z,9624.00
2018-08-07T05:59:22.263Z,9560.00
2018-08-07T06:00:22.330Z,9556.00
2018-08-07T06:01:22.324Z,9564.00
2018-08-07T06:02:22.320Z,9580.00
2018-08-07T06:03:22.323Z,9572.00
2018-08-07T06:04:22.398Z,9536.00
2018-08-07T06:05:22.379Z,9556.00
2018-08-07T06:06:22.384Z,9528.00
2018-08-07T06:07:22.396Z,9524.00
2018-08-07T06:08:22.415Z,9520.00
2018-08-07T06:09:22.472Z,9516.00
2018-08-07T06:10:22.773Z,9512.00
2018-08-07T06:11:22.472Z,9500.00
2018-08-07T06:12:22.476Z,9508.00
2018-08-07T06:13:22.504Z,9456.00
2018-08-07T06:14:22.540Z,9468.00
2018-08-07T06:15:22.547Z,9456.00
2018-08-07T06:16:22.638Z,9400.00
2018-08-07T06:17:22.522Z,9388.00
2018-08-07T06:18:22.563Z,9364.00
2018-08-07T06:19:22.596Z,9288.00
2018-08-07T06:20:22.585Z,9164.00
2018-08-07T06:21:22.643Z,9084.00
2018-08-07T06:22:22.632Z,9012.00
2018-08-07T06:23:22.667Z,8928.00
2018-08-07T06:24:22.678Z,8832.00
2018-08-07T06:25:22.654Z,8764.00
2018-08-07T06:26:23.045Z,8716.00
2018-08-07T06:27:22.712Z,8628.00
2018-08-07T06:28:22.739Z,8524.00
2018-08-07T06:29:22.754Z,8460.00
2018-08-07T06:30:22.823Z,8372.00
2018-08-07T06:31:22.755Z,8264.00
2018-08-07T06:32:22.802Z,8176.00
2018-08-07T06:33:22.806Z,8080.00
2018-08-07T06:34:22.947Z,7960.00
2018-08-07T06:35:22.864Z,7844.00
2018-08-07T06:36:22.853Z,7744.00
2018-08-07T06:37:22.875Z,7644.00
2018-08-07T06:38:22.914Z,7572.00
2018-08-07T06:39:22.906Z,7420.00
2018-08-07T06:40:22.937Z,7312.00
2018-08-07T06:41:22.930Z,7204.00
2018-08-07T06:42:22.950Z,7096.00
2018-08-07T06:43:22.985Z,6976.00
2018-08-07T06:44:23.002Z,6860.00
2018-08-07T06:45:23.059Z,6736.00
2018-08-07T06:46:23.016Z,6600.00
2018-08-07T06:47:23.017Z,6456.00
2018-08-07T06:48:23.045Z,6320.00
2018-08-07T06:49:23.073Z,6140.00
2018-08-07T06:50:23.105Z,5956.00
2018-08-07T06:51:23.124Z,5676.00
2018-08-07T06:52:23.109Z,5288.00
2018-08-07T06:53:23.154Z,4844.00
2018-08-07T06:54:23.148Z,4420.00
2018-08-07T06:55:23.163Z,3988.00
2018-08-07T06:56:23.201Z,3556.00
2018-08-07T06:57:23.250Z,3236.00
2018-08-07T06:58:23.199Z,3052.00
2018-08-07T06:59:23.227Z,3000.00
2018-08-07T07:00:23.244Z,2992.00
2018-08-07T07:01:23.297Z,2984.00
2018-08-07T07:02:23.297Z,2968.00
2018-08-07T07:03:23.317Z,2964.00
2018-08-07T07:04:23.341Z,2948.00
2018-08-07T07:05:23.314Z,2940.00
2018-08-07T07:06:23.344Z,2912.00
2018-08-07T07:07:23.363Z,2888.00
2018-08-07T07:08:23.432Z,2856.00
2018-08-07T07:09:23.401Z,2840.00
2018-08-07T07:10:23.427Z,2816.00
2018-08-07T07:11:23.419Z,2784.00
2018-08-07T07:12:23.426Z,2768.00
2018-08-07T07:13:23.471Z,2744.00
2018-08-07T07:14:23.477Z,2724.00
2018-08-07T07:15:23.554Z,2708.00
2018-08-07T07:16:23.480Z,2684.00
2018-08-07T07:17:23.520Z,2660.00
2018-08-07T07:18:23.539Z,2636.00
2018-08-07T07:19:23.552Z,2616.00
2018-08-07T07:20:23.603Z,2596.00
2018-08-07T07:21:23.612Z,2584.00
2018-08-07T07:22:23.586Z,2576.00
2018-08-07T07:23:23.674Z,2564.00
2018-08-07T07:24:23.626Z,2552.00
2018-08-07T07:25:23.627Z,2552.00
2018-08-07T07:26:23.679Z,2552.00
2018-08-07T07:27:23.674Z,2536.00
2018-08-07T07:28:23.704Z,2540.00
2018-08-07T07:29:23.703Z,2528.00
2018-08-07T07:30:23.737Z,2520.00
2018-08-07T07:31:24.207Z,2508.00
2018-08-07T07:32:23.772Z,2504.00
2018-08-07T07:33:23.818Z,2504.00
2018-08-07T07:34:23.822Z,2492.00
2018-08-07T07:35:23.798Z,2492.00
2018-08-07T07:36:23.834Z,2476.00
2018-08-07T07:37:23.844Z,2464.00
2018-08-07T07:38:23.872Z,2440.00
2018-08-07T07:39:23.854Z,2424.00
2018-08-07T07:40:23.918Z,2416.00
2018-08-07T07:41:23.896Z,2404.00
2018-08-07T07:42:23.892Z,2392.00
2018-08-07T07:43:23.912Z,2384.00
2018-08-07T07:44:24.007Z,2380.00
2018-08-07T07:45:23.969Z,2368.00
2018-08-07T07:46:23.970Z,2352.00
2018-08-07T07:47:23.965Z,2360.00
2018-08-07T07:48:24.051Z,2332.00
2018-08-07T07:49:24.059Z,2332.00
2018-08-07T07:50:24.059Z,2328.00
2018-08-07T07:51:24.058Z,2328.00
2018-08-07T07:52:24.052Z,2324.00
2018-08-07T07:53:24.105Z,2316.00
2018-08-07T07:54:24.075Z,2312.00
2018-08-07T07:55:24.148Z,2308.00
2018-08-07T07:56:24.133Z,2304.00
2018-08-07T07:57:24.189Z,2296.00
2018-08-07T07:58:24.137Z,2292.00
2018-08-07T07:59:24.183Z,2284.00
2018-08-07T08:00:24.222Z,2284.00
2018-08-07T08:01:24.207Z,2280.00
2018-08-07T08:02:24.222Z,2276.00
2018-08-07T08:03:24.238Z,2268.00
2018-08-07T08:04:24.266Z,2272.00
2018-08-07T08:05:24.337Z,2268.00
2018-08-07T08:06:24.283Z,2260.00
2018-08-07T08:07:24.341Z,2264.00
2018-08-07T08:08:24.331Z,2264.00
2018-08-07T08:09:24.329Z,2252.00
2018-08-07T08:10:24.326Z,2252.00
2018-08-07T08:11:24.729Z,2248.00
2018-08-07T08:12:24.396Z,2244.00
2018-08-07T08:13:24.537Z,2244.00
2018-08-07T08:14:24.387Z,2236.00
2018-08-07T08:15:24.413Z,2240.00
2018-08-07T08:16:24.411Z,2244.00
2018-08-07T08:17:24.476Z,2236.00
2018-08-07T08:18:24.483Z,2236.00
2018-08-07T08:19:24.470Z,2236.00
2018-08-07T08:20:24.477Z,2240.00
2018-08-07T08:21:24.509Z,2240.00
2018-08-07T08:22:24.535Z,2236.00
2018-08-07T08:23:24.607Z,2240.00
2018-08-07T08:24:24.533Z,2228.00
2018-08-07T08:25:24.541Z,2232.00
2018-08-07T08:26:24.582Z,2232.00
2018-08-07T08:27:24.592Z,2228.00
2018-08-07T08:28:24.644Z,2232.00
2018-08-07T08:29:24.827Z,2236.00
2018-08-07T08:30:24.664Z,2228.00
2018-08-07T08:31:24.657Z,2248.00
2018-08-07T08:32:24.674Z,2252.00
2018-08-07T08:33:24.655Z,2252.00
2018-08-07T08:34:24.678Z,2248.00
2018-08-07T08:35:24.770Z,2256.00
2018-08-07T08:36:24.749Z,2252.00
2018-08-07T08:37:24.776Z,2256.00
2018-08-07T08:38:24.764Z,2256.00
2018-08-07T08:39:24.773Z,2252.00
2018-08-07T08:40:24.825Z,2256.00
2018-08-07T08:41:24.809Z,2256.00
2018-08-07T08:42:24.804Z,2260.00
2018-08-07T08:43:24.852Z,2260.00
2018-08-07T08:44:24.849Z,2264.00
2018-08-07T08:45:24.896Z,2288.00
2018-08-07T08:46:24.852Z,2268.00
2018-08-07T08:47:24.887Z,2268.00
2018-08-07T08:48:25.005Z,2268.00
2018-08-07T08:49:24.903Z,2268.00
2018-08-07T08:50:24.969Z,2268.00
2018-08-07T08:51:24.937Z,2268.00
2018-08-07T08:52:24.988Z,2268.00
2018-08-07T08:53:24.985Z,2268.00
2018-08-07T08:54:25.005Z,2268.00
2018-08-07T08:55:25.005Z,2268.00
2018-08-07T08:56:25.039Z,2264.00
2018-08-07T08:57:25.068Z,2264.00
2018-08-07T08:58:25.124Z,2260.00
2018-08-07T08:59:25.054Z,2260.00
2018-08-07T09:00:25.110Z,2264.00
2018-08-07T09:01:25.082Z,2268.00
2018-08-07T09:02:25.111Z,2264.00
2018-08-07T09:03:25.167Z,2256.00
2018-08-07T09:04:25.138Z,2260.00
2018-08-07T09:05:25.292Z,2264.00
2018-08-07T09:06:25.176Z,2260.00
2018-08-07T09:07:25.211Z,2288.00
2018-08-07T09:08:25.264Z,2264.00
2018-08-07T09:09:25.202Z,2260.00
2018-08-07T09:10:25.283Z,2264.00
2018-08-07T09:11:25.288Z,2264.00
2018-08-07T09:12:25.281Z,2264.00
2018-08-07T09:13:25.330Z,2264.00
2018-08-07T09:14:25.362Z,2272.00
2018-08-07T09:15:25.287Z,2268.00
2018-08-07T09:16:25.324Z,2268.00
2018-08-07T09:17:25.358Z,2296.00
2018-08-07T09:18:25.347Z,2296.00
2018-08-07T09:19:25.519Z,2284.00
2018-08-07T09:20:25.379Z,2284.00
2018-08-07T09:21:25.432Z,2296.00
2018-08-07T09:22:25.396Z,2284.00
2018-08-07T09:23:25.442Z,2284.00
2018-08-07T09:24:25.481Z,2296.00
2018-08-07T09:25:25.562Z,2292.00
2018-08-07T09:26:25.484Z,2296.00
2018-08-07T09:27:25.558Z,2300.00
2018-08-07T09:28:25.531Z,2300.00
2018-08-07T09:29:25.532Z,2304.00
2018-08-07T09:30:25.517Z,2308.00
2018-08-07T09:31:25.566Z,2312.00
2018-08-07T09:32:25.592Z,2316.00
2018-08-07T09:33:25.784Z,2316.00
2018-08-07T09:34:25.722Z,2316.00
2018-08-07T09:35:25.883Z,2316.00
2018-08-07T09:36:25.845Z,2316.00
2018-08-07T09:37:26.027Z,2324.00
2018-08-07T09:38:25.688Z,2324.00
2018-08-07T09:39:25.714Z,2332.00
2018-08-07T09:40:25.862Z,2336.00
2018-08-07T09:41:25.717Z,2344.00
2018-08-07T09:42:25.722Z,2336.00
2018-08-07T09:43:25.777Z,2340.00
2018-08-07T09:44:25.835Z,2340.00
2018-08-07T09:45:25.760Z,2340.00
2018-08-07T09:46:25.825Z,2344.00
2018-08-07T09:47:25.831Z,2348.00
2018-08-07T09:48:25.833Z,2348.00
2018-08-07T09:49:25.879Z,2356.00
2018-08-07T09:50:25.861Z,2356.00
2018-08-07T09:51:25.860Z,2360.00
2018-08-07T09:52:25.987Z,2360.00
2018-08-07T09:53:25.922Z,2364.00
2018-08-07T09:54:25.896Z,2372.00
2018-08-07T09:55:25.944Z,2376.00
2018-08-07T09:56:25.930Z,2376.00
2018-08-07T09:57:25.956Z,2368.00
2018-08-07T09:58:26.094Z,2372.00
2018-08-07T09:59:25.984Z,2372.00
2018-08-07T10:00:26.052Z,2368.00
2018-08-07T10:01:26.009Z,2360.00
2018-08-07T10:02:26.019Z,2360.00
2018-08-07T10:03:26.020Z,2356.00
2018-08-07T10:04:26.086Z,2352.00
2018-08-07T10:05:26.188Z,2348.00
2018-08-07T10:06:26.116Z,2344.00
2018-08-07T10:07:26.123Z,2340.00
2018-08-07T10:08:26.132Z,2336.00
2018-08-07T10:09:26.129Z,2332.00
2018-08-07T10:10:26.219Z,2328.00
2018-08-07T10:11:26.260Z,2328.00
2018-08-07T10:12:26.251Z,2324.00
2018-08-07T10:13:26.220Z,2320.00
2018-08-07T10:14:26.208Z,2316.00
2018-08-07T10:15:26.228Z,2320.00
2018-08-07T10:16:26.288Z,2308.00
2018-08-07T10:17:26.296Z,2308.00
2018-08-07T10:18:26.336Z,2300.00
2018-08-07T10:19:26.296Z,2304.00
2018-08-07T10:20:26.346Z,2300.00
2018-08-07T10:21:26.373Z,2300.00
2018-08-07T10:22:26.397Z,2296.00
2018-08-07T10:23:26.405Z,2292.00
2018-08-07T10:24:26.362Z,2288.00
2018-08-07T10:25:26.391Z,2284.00
2018-08-07T10:26:26.428Z,2276.00
2018-08-07T10:27:26.447Z,2272.00
2018-08-07T10:28:26.486Z,2272.00
2018-08-07T10:29:26.466Z,2276.00
2018-08-07T10:30:26.525Z,2276.00
2018-08-07T10:31:26.489Z,2264.00
2018-08-07T10:32:26.536Z,2260.00
2018-08-07T10:33:26.552Z,2264.00
2018-08-07T10:34:26.536Z,2264.00
2018-08-07T10:35:26.535Z,2268.00
2018-08-07T10:36:26.562Z,2228.00
2018-08-07T10:37:26.563Z,2256.00
2018-08-07T10:38:26.614Z,2256.00
2018-08-07T10:39:26.644Z,2260.00
2018-08-07T10:40:26.658Z,2248.00
2018-08-07T10:41:26.756Z,2244.00
2018-08-07T10:42:26.646Z,2240.00
2018-08-07T10:43:26.813Z,2240.00
2018-08-07T10:44:26.720Z,2236.00
2018-08-07T10:45:26.703Z,2236.00
2018-08-07T10:46:26.724Z,2224.00
2018-08-07T10:47:26.743Z,2224.00
2018-08-07T10:48:26.753Z,2228.00
2018-08-07T10:49:26.783Z,2228.00
2018-08-07T10:50:26.809Z,2232.00
2018-08-07T10:51:26.804Z,2232.00
2018-08-07T10:52:26.886Z,2232.00
2018-08-07T10:53:26.834Z,2228.00
2018-08-07T10:54:26.872Z,2232.00
2018-08-07T10:55:26.906Z,2236.00
2018-08-07T10:56:26.943Z,2244.00
2018-08-07T10:57:26.945Z,2236.00
2018-08-07T10:58:26.972Z,2240.00
2018-08-07T10:59:26.988Z,2244.00
2018-08-07T11:00:26.993Z,2248.00
2018-08-07T11:01:27.027Z,2248.00
2018-08-07T11:02:26.966Z,2252.00
2018-08-07T11:03:26.985Z,2248.00
2018-08-07T11:04:27.051Z,2248.00
2018-08-07T11:05:27.027Z,2244.00
2018-08-07T11:06:27.064Z,2248.00
2018-08-07T11:07:27.050Z,2248.00
2018-08-07T11:08:27.063Z,2248.00
2018-08-07T11:09:27.230Z,2244.00
2018-08-07T11:10:27.114Z,2240.00
2018-08-07T11:11:27.114Z,2244.00
2018-08-07T11:12:27.124Z,2252.00
2018-08-07T11:13:27.160Z,2248.00
2018-08-07T11:14:27.247Z,2248.00
2018-08-07T11:15:27.192Z,2248.00
2018-08-07T11:16:27.191Z,2248.00
2018-08-07T11:17:27.274Z,2248.00
2018-08-07T11:18:27.297Z,2248.00
2018-08-07T11:19:27.441Z,2256.00
2018-08-07T11:20:27.299Z,2252.00
2018-08-07T11:21:27.295Z,2252.00
2018-08-07T11:22:27.329Z,2256.00
2018-08-07T11:23:27.373Z,2256.00
2018-08-07T11:24:27.401Z,2248.00
2018-08-07T11:25:27.360Z,2248.00
2018-08-07T11:26:27.365Z,2252.00
2018-08-07T11:27:27.406Z,2248.00
2018-08-07T11:28:27.445Z,2244.00
2018-08-07T11:29:27.438Z,2248.00
2018-08-07T11:30:27.438Z,2252.00
2018-08-07T11:31:27.468Z,2268.00
2018-08-07T11:32:27.503Z,2248.00
2018-08-07T11:33:27.530Z,2256.00
2018-08-07T11:34:27.539Z,2268.00
2018-08-07T11:35:27.525Z,2256.00
2018-08-07T11:36:27.538Z,2260.00
2018-08-07T11:37:27.544Z,2284.00
2018-08-07T11:38:27.559Z,2288.00
2018-08-07T11:39:27.626Z,2288.00
2018-08-07T11:40:27.668Z,2268.00
2018-08-07T11:41:27.716Z,2276.00
2018-08-07T11:42:27.623Z,2288.00
2018-08-07T11:43:27.663Z,2288.00
2018-08-07T11:44:27.664Z,2284.00
2018-08-07T11:45:27.715Z,2280.00
2018-08-07T11:46:27.720Z,2260.00
2018-08-07T11:47:27.716Z,2264.00
2018-08-07T11:48:27.749Z,2256.00
2018-08-07T11:49:27.742Z,2252.00
2018-08-07T11:50:28.351Z,2244.00
2018-08-07T11:51:27.892Z,2252.00
2018-08-07T11:52:27.848Z,2260.00
2018-08-07T11:53:27.785Z,2276.00
2018-08-07T11:54:27.825Z,2264.00
2018-08-07T11:55:27.866Z,2276.00
2018-08-07T11:56:27.860Z,2264.00
2018-08-07T11:57:27.906Z,2256.00
2018-08-07T11:58:27.885Z,2268.00
2018-08-07T11:59:27.897Z,2268.00
2018-08-07T12:00:27.903Z,2264.00
2018-08-07T12:01:27.927Z,2256.00
2018-08-07T12:02:28.055Z,2252.00
2018-08-07T12:03:27.988Z,2244.00
2018-08-07T12:04:27.975Z,2240.00
2018-08-07T12:05:28.023Z,2244.00
2018-08-07T12:06:28.013Z,2248.00
2018-08-07T12:07:28.125Z,2248.00
2018-08-07T12:08:28.064Z,2252.00
2018-08-07T12:09:28.139Z,2268.00
2018-08-07T12:10:28.095Z,2276.00
2018-08-07T12:11:28.113Z,2268.00
2018-08-07T12:12:28.142Z,2260.00
2018-08-07T12:13:28.127Z,2264.00
2018-08-07T12:14:28.186Z,2272.00
2018-08-07T12:15:28.161Z,2292.00
2018-08-07T12:16:28.231Z,2324.00
2018-08-07T12:17:28.199Z,2348.00
2018-08-07T12:18:28.255Z,2388.00
2018-08-07T12:19:28.242Z,2420.00
2018-08-07T12:20:28.256Z,2484.00
2018-08-07T12:21:28.307Z,2524.00
2018-08-07T12:22:28.290Z,2560.00
2018-08-07T12:23:28.318Z,2584.00
2018-08-07T12:24:28.299Z,2600.00
2018-08-07T12:25:28.434Z,2612.00